KRVS/RVS METAR and TAF weather

Enter ICAO airport designator
Station Type Date Time Source
KRVS METAR 2022/06/25 22:53 UTC NOAA

KRVS 252253Z 23008G16KT 200V260 10SM CLR 37/22 A2990 RMK AO2 SLP124 T03670217


Station Type Date Time Source
KRVS Decoded METAR 2022/06/25 22:53 UTC NOAA

TULSA JONES JR. AIRPORT, OK, United States (KRVS) 36-03N 095-59W 200M
Jun 25, 2022 - 06:53 PM EDT / 2022.06.25 2253 UTC
Wind: from the SW (230 degrees) at 9 MPH (8 KT) gusting to 18 MPH (16 KT) (direction variable):0
Visibility: 10 mile(s):0
Sky conditions: clear
Temperature: 98.1 F (36.7 C)
Heat index: 106.5 F (41.4 C):1
Dew Point: 71.1 F (21.7 C)
Relative Humidity: 42%
Pressure (altimeter): 29.9 in. Hg (1012 hPa)
ob: KRVS 252253Z 23008G16KT 200V260 10SM CLR 37/22 A2990 RMK AO2 SLP124 T03670217
cycle: 23

Station Type Date Time Source
KRVS TAF 2022/06/25 18:22 UTC NOAA

TAF KRVS 251720Z 2518/2618 20013G18KT P6SM SKC
FM260000 14006KT P6SM SCT250
FM260300 03007KT P6SM BKN250
FM260900 36015G22KT P6SM VCSH OVC050 PROB30 2609/2615 5SM -TSRA BKN035CB
FM261500 02012KT P6SM BKN035

Example: see airport list